
Distance (Route):
Temperature : -18.1°C
Humidity : 0%
Pressure : 0hPa| Receiver | Frames | First received | Last received |
|---|---|---|---|
| WB7NNF | 330 | 2026-09-03 05:39:41 | 2026-09-03 07:43:39 |
| Receiver | Date | Latitude | Longitude | Direction | Speed | Altitude | Climb | Temperature | Humidity | Pressure | Voltage | Killtimer | Uptime | BKT | XDATA |
|---|---|---|---|---|---|---|---|---|---|---|---|---|---|---|---|
| WB7NNF | 2026-09-03 07:43:39 | 48.26489 | -117.40922 | 5° | 47km/h | 5840m | -12.6m/s | -18.1°C | 0% | 0hPa | 0V | 00:00:00 | 00:00:00 | 00:00:00 | |
| WB7NNF | 2026-09-03 07:43:19 | 48.26242 | -117.40890 | 349° | 47km/h | 6117m | -13.2m/s | -18.2°C | 0% | 0hPa | 0V | 00:00:00 | 00:00:00 | 00:00:00 | |
| WB7NNF | 2026-09-03 07:42:58 | 48.25976 | -117.40809 | 351° | 58km/h | 6377m | -12.8m/s | -20.1°C | 0% | 0hPa | 0V | 00:00:00 | 00:00:00 | 00:00:00 | |
| WB7NNF | 2026-09-03 07:42:38 | 48.25686 | -117.40746 | 356° | 51km/h | 6647m | -12.8m/s | -22.0°C | 0% | 0hPa | 0V | 00:00:00 | 00:00:00 | 00:00:00 | |
| WB7NNF | 2026-09-03 07:42:17 | 48.25416 | -117.40728 | 1° | 57km/h | 6901m | -12.7m/s | -23.7°C | 0% | 0hPa | 0V | 00:00:00 | 00:00:00 | 00:00:00 | |
| WB7NNF | 2026-09-03 07:41:57 | 48.25110 | -117.40739 | 359° | 57km/h | 7166m | -12.3m/s | -25.7°C | 0% | 0hPa | 0V | 00:00:00 | 00:00:00 | 00:00:00 | |
| WB7NNF | 2026-09-03 07:41:36 | 48.24808 | -117.40726 | 355° | 62km/h | 7414m | -12.8m/s | -27.8°C | 0% | 0hPa | 0V | 00:00:00 | 00:00:00 | 00:00:00 | |
| WB7NNF | 2026-09-03 07:41:16 | 48.24476 | -117.40668 | 349° | 62km/h | 7679m | -12.7m/s | -29.7°C | 0% | 0hPa | 0V | 00:00:00 | 00:00:00 | 00:00:00 | |
| WB7NNF | 2026-09-03 07:40:55 | 48.24151 | -117.40591 | 354° | 62km/h | 7934m | -13.1m/s | -31.9°C | 0% | 0hPa | 0V | 00:00:00 | 00:00:00 | 00:00:00 | |
| WB7NNF | 2026-09-03 07:40:35 | 48.23808 | -117.40535 | 355° | 66km/h | 8206m | -13.3m/s | -34.3°C | 0% | 0hPa | 0V | 00:00:00 | 00:00:00 | 00:00:00 | |
| WB7NNF | 2026-09-03 07:40:14 | 48.23448 | -117.40474 | 355° | 71km/h | 8487m | -13.9m/s | -36.6°C | 0% | 0hPa | 0V | 00:00:00 | 00:00:00 | 00:00:00 | |
| WB7NNF | 2026-09-03 07:39:53 | 48.23092 | -117.40423 | 357° | 75km/h | 8759m | -13.4m/s | -39.1°C | 0% | 0hPa | 0V | 00:00:00 | 00:00:00 | 00:00:00 | |
| WB7NNF | 2026-09-03 07:39:33 | 48.22697 | -117.40376 | 356° | 75km/h | 9041m | -13.4m/s | -41.6°C | 0% | 0hPa | 0V | 00:00:00 | 00:00:00 | 00:00:00 | |
| WB7NNF | 2026-09-03 07:39:12 | 48.22312 | -117.40327 | 357° | 78km/h | 9313m | -14.1m/s | -44.0°C | 0% | 0hPa | 0V | 00:00:00 | 00:00:00 | 00:00:00 | |
| WB7NNF | 2026-09-03 07:38:52 | 48.21888 | -117.40292 | 358° | 80km/h | 9598m | -13.3m/s | -46.6°C | 0% | 0hPa | 0V | 00:00:00 | 00:00:00 | 00:00:00 | |
| WB7NNF | 2026-09-03 07:38:31 | 48.21472 | -117.40270 | 360° | 84km/h | 9876m | -14.0m/s | -48.8°C | 0% | 0hPa | 0V | 00:00:00 | 00:00:00 | 00:00:00 | |
| WB7NNF | 2026-09-03 07:38:11 | 48.21032 | -117.40238 | 357° | 86km/h | 10168m | -13.7m/s | -51.3°C | 0% | 0hPa | 0V | 00:00:00 | 00:00:00 | 00:00:00 | |
| WB7NNF | 2026-09-03 07:37:50 | 48.20614 | -117.40146 | 351° | 84km/h | 10454m | -13.7m/s | -53.4°C | 0% | 0hPa | 0V | 00:00:00 | 00:00:00 | 00:00:00 | |
| WB7NNF | 2026-09-03 07:37:30 | 48.20175 | -117.40055 | 357° | 82km/h | 10756m | -14.4m/s | -55.7°C | 0% | 0hPa | 0V | 00:00:00 | 00:00:00 | 00:00:00 | |
| WB7NNF | 2026-09-03 07:37:09 | 48.19790 | -117.40091 | 7° | 62km/h | 11042m | -14.0m/s | -53.2°C | 0% | 0hPa | 0V | 00:00:00 | 00:00:00 | 00:00:00 | |
| WB7NNF | 2026-09-03 07:36:49 | 48.19480 | -117.40042 | 349° | 60km/h | 11349m | -14.3m/s | -52.6°C | 0% | 0hPa | 0V | 00:00:00 | 00:00:00 | 00:00:00 | |
| WB7NNF | 2026-09-03 07:36:28 | 48.19182 | -117.39912 | 351° | 64km/h | 11639m | -14.5m/s | -52.7°C | 0% | 0hPa | 0V | 00:00:00 | 00:00:00 | 00:00:00 | |
| WB7NNF | 2026-09-03 07:36:08 | 48.18834 | -117.39913 | 13° | 69km/h | 11954m | -15.8m/s | -50.3°C | 0% | 0hPa | 0V | 00:00:00 | 00:00:00 | 00:00:00 | |
| WB7NNF | 2026-09-03 07:35:47 | 48.18513 | -117.40043 | 25° | 62km/h | 12268m | -15.9m/s | -48.9°C | 0% | 0hPa | 0V | 00:00:00 | 00:00:00 | 00:00:00 | |
| WB7NNF | 2026-09-03 07:35:27 | 48.18255 | -117.40261 | 33° | 49km/h | 12605m | -15.7m/s | -47.5°C | 0% | 0hPa | 0V | 00:00:00 | 00:00:00 | 00:00:00 | |
| WB7NNF | 2026-09-03 07:35:06 | 48.18028 | -117.40340 | 361° | 47km/h | 12960m | -17.2m/s | -49.1°C | 0% | 0hPa | 0V | 00:00:00 | 00:00:00 | 00:00:00 | |
| WB7NNF | 2026-09-03 07:34:45 | 48.17803 | -117.40479 | 20° | 47km/h | 13289m | -16.5m/s | -49.0°C | 0% | 0hPa | 0V | 00:00:00 | 00:00:00 | 00:00:00 | |
| WB7NNF | 2026-09-03 07:34:25 | 48.17577 | -117.40646 | 35° | 47km/h | 13615m | -15.7m/s | -48.1°C | 0% | 0hPa | 0V | 00:00:00 | 00:00:00 | 00:00:00 | |
| WB7NNF | 2026-09-03 07:34:04 | 48.17385 | -117.40890 | 48° | 51km/h | 13931m | -16.2m/s | -48.3°C | 0% | 0hPa | 0V | 00:00:00 | 00:00:00 | 00:00:00 | |
| WB7NNF | 2026-09-03 07:33:44 | 48.17230 | -117.41196 | 63° | 35km/h | 14272m | -16.2m/s | -47.8°C | 0% | 0hPa | 0V | 00:00:00 | 00:00:00 | 00:00:00 | |
| WB7NNF | 2026-09-03 07:33:23 | 48.17184 | -117.41340 | 74° | 13km/h | 14597m | -16.0m/s | -49.9°C | 0% | 0hPa | 0V | 00:00:00 | 00:00:00 | 00:00:00 | |
| WB7NNF | 2026-09-03 07:33:03 | 48.17117 | -117.41399 | 20° | 31km/h | 14938m | -15.9m/s | -50.1°C | 0% | 0hPa | 0V | 00:00:00 | 00:00:00 | 00:00:00 | |
| WB7NNF | 2026-09-03 07:32:42 | 48.16910 | -117.41463 | 18° | 47km/h | 15267m | -16.1m/s | -50.5°C | 0% | 0hPa | 0V | 00:00:00 | 00:00:00 | 00:00:00 | |
| WB7NNF | 2026-09-03 07:32:22 | 48.16672 | -117.41662 | 38° | 51km/h | 15617m | -17.6m/s | -48.9°C | 0% | 0hPa | 0V | 00:00:00 | 00:00:00 | 00:00:00 | |
| WB7NNF | 2026-09-03 07:32:01 | 48.16462 | -117.41848 | 20° | 47km/h | 15968m | -18.5m/s | -49.2°C | 0% | 0hPa | 0V | 00:00:00 | 00:00:00 | 00:00:00 | |
| WB7NNF | 2026-09-03 07:31:41 | 48.16215 | -117.41961 | 26° | 38km/h | 16354m | -19.1m/s | -46.9°C | 0% | 0hPa | 0V | 00:00:00 | 00:00:00 | 00:00:00 | |
| WB7NNF | 2026-09-03 07:31:20 | 48.16011 | -117.42075 | 26° | 42km/h | 16727m | -19.5m/s | -48.2°C | 0% | 0hPa | 0V | 00:00:00 | 00:00:00 | 00:00:00 | |
| WB7NNF | 2026-09-03 07:31:00 | 48.15801 | -117.42206 | 28° | 44km/h | 17131m | -19.9m/s | -48.8°C | 0% | 0hPa | 0V | 00:00:00 | 00:00:00 | 00:00:00 | |
| WB7NNF | 2026-09-03 07:30:39 | 48.15580 | -117.42416 | 38° | 49km/h | 17524m | -20.1m/s | -50.7°C | 0% | 0hPa | 0V | 00:00:00 | 00:00:00 | 00:00:00 | |
| WB7NNF | 2026-09-03 07:30:19 | 48.15408 | -117.42669 | 42° | 40km/h | 17947m | -21.1m/s | -50.2°C | 0% | 0hPa | 0V | 00:00:00 | 00:00:00 | 00:00:00 | |
| WB7NNF | 2026-09-03 07:29:58 | 48.15228 | -117.42879 | 39° | 38km/h | 18406m | -23.0m/s | -51.9°C | 0% | 0hPa | 0V | 00:00:00 | 00:00:00 | 00:00:00 | |
| WB7NNF | 2026-09-03 07:29:37 | 48.15043 | -117.42948 | 29° | 38km/h | 18872m | -23.6m/s | -50.3°C | 0% | 0hPa | 0V | 00:00:00 | 00:00:00 | 00:00:00 | |
| WB7NNF | 2026-09-03 07:29:17 | 48.14942 | -117.43062 | 58° | 11km/h | 19382m | -23.1m/s | -50.2°C | 0% | 0hPa | 0V | 00:00:00 | 00:00:00 | 00:00:00 | |
| WB7NNF | 2026-09-03 07:28:56 | 48.14912 | -117.43087 | 359° | 18km/h | 19873m | -24.7m/s | -51.0°C | 0% | 0hPa | 0V | 00:00:00 | 00:00:00 | 00:00:00 | |
| WB7NNF | 2026-09-03 07:28:36 | 48.14789 | -117.43113 | 4° | 24km/h | 20403m | -24.3m/s | -51.7°C | 0% | 0hPa | 0V | 00:00:00 | 00:00:00 | 00:00:00 | |
| WB7NNF | 2026-09-03 07:28:15 | 48.14702 | -117.43150 | 0° | 0km/h | 20904m | -25.4m/s | -51.9°C | 0% | 0hPa | 0V | 00:00:00 | 00:00:00 | 00:00:00 | |
| WB7NNF | 2026-09-03 07:27:55 | 48.14755 | -117.43150 | 198° | 9km/h | 21441m | -26.5m/s | -52.9°C | 0% | 0hPa | 0V | 00:00:00 | 00:00:00 | 00:00:00 | |
| WB7NNF | 2026-09-03 07:27:34 | 48.14722 | -117.43194 | 67° | 22km/h | 22002m | -29.5m/s | -52.8°C | 0% | 0hPa | 0V | 00:00:00 | 00:00:00 | 00:00:00 | |
| WB7NNF | 2026-09-03 07:27:14 | 48.14748 | -117.43366 | 118° | 16km/h | 22627m | -31.0m/s | -53.8°C | 0% | 0hPa | 0V | 00:00:00 | 00:00:00 | 00:00:00 | |
| WB7NNF | 2026-09-03 07:26:53 | 48.14730 | -117.43460 | 94° | 20km/h | 23214m | -32.2m/s | -51.3°C | 0% | 0hPa | 0V | 00:00:00 | 00:00:00 | 00:00:00 | |
| WB7NNF | 2026-09-03 07:26:33 | 48.14777 | -117.43445 | 277° | 13km/h | 23891m | -34.4m/s | -51.9°C | 0% | 0hPa | 0V | 00:00:00 | 00:00:00 | 00:00:00 | |
| WB7NNF | 2026-09-03 07:26:12 | 48.14775 | -117.43407 | 300° | 9km/h | 24544m | -33.5m/s | -53.2°C | 0% | 0hPa | 0V | 00:00:00 | 00:00:00 | 00:00:00 | |
| WB7NNF | 2026-09-03 07:25:52 | 48.14779 | -117.43390 | 208° | 11km/h | 25274m | -35.0m/s | -51.2°C | 0% | 0hPa | 0V | 00:00:00 | 00:00:00 | 00:00:00 | |
| WB7NNF | 2026-09-03 07:25:31 | 48.14793 | -117.43241 | 290° | 24km/h | 25999m | -37.4m/s | -50.5°C | 0% | 0hPa | 0V | 00:00:00 | 00:00:00 | 00:00:00 | |
| WB7NNF | 2026-09-03 07:25:11 | 48.14795 | -117.43160 | 299° | 13km/h | 26748m | -37.4m/s | -48.3°C | 0% | 0hPa | 0V | 00:00:00 | 00:00:00 | 00:00:00 | |
| WB7NNF | 2026-09-03 07:24:50 | 48.14707 | -117.43156 | 29° | 13km/h | 27543m | -41.2m/s | -48.1°C | 0% | 0hPa | 0V | 00:00:00 | 00:00:00 | 00:00:00 | |
| WB7NNF | 2026-09-03 07:24:30 | 48.14686 | -117.43194 | 361° | 5km/h | 28409m | -44.1m/s | -47.5°C | 0% | 0hPa | 0V | 00:00:00 | 00:00:00 | 00:00:00 | |
| WB7NNF | 2026-09-03 07:24:09 | 48.14654 | -117.43274 | 95° | 9km/h | 29294m | -41.8m/s | -47.0°C | 0% | 0hPa | 0V | 00:00:00 | 00:00:00 | 00:00:00 | |
| WB7NNF | 2026-09-03 07:23:48 | 48.14698 | -117.43353 | 142° | 13km/h | 30098m | -38.9m/s | -45.4°C | 0% | 0hPa | 0V | 00:00:00 | 00:00:00 | 00:00:00 | |
| WB7NNF | 2026-09-03 07:23:28 | 48.14776 | -117.43378 | 165° | 18km/h | 31012m | -42.3m/s | -42.8°C | 0% | 0hPa | 0V | 00:00:00 | 00:00:00 | 00:00:00 | |
| WB7NNF | 2026-09-03 07:23:07 | 48.14881 | -117.43385 | 159° | 11km/h | 31926m | -49.4m/s | -41.1°C | 0% | 0hPa | 0V | 00:00:00 | 00:00:00 | 00:00:00 | |
| WB7NNF | 2026-09-03 07:22:26 | 48.15016 | -117.43507 | 221° | 4km/h | 33778m | -46.2m/s | -39.3°C | 0% | 0hPa | 0V | 00:00:00 | 00:00:00 | 00:00:00 | |
| WB7NNF | 2026-09-03 07:22:04 | 48.15008 | -117.43525 | 244° | 2km/h | 34864m | -53.3m/s | -34.6°C | 0% | 0hPa | 0V | 00:00:00 | 00:00:00 | 00:00:00 | |
| WB7NNF | 2026-09-03 07:21:43 | 48.15021 | -117.43598 | 122° | 22km/h | 35828m | -32.9m/s | -35.0°C | 0% | 0hPa | 0V | 00:00:00 | 00:00:00 | 00:00:00 | |
| WB7NNF | 2026-09-03 07:21:23 | 48.15129 | -117.43585 | 217° | 37km/h | 36489m | -36.6m/s | -33.1°C | 0% | 0hPa | 0V | 00:00:00 | 00:00:00 | 00:00:00 | |
| WB7NNF | 2026-09-03 07:21:00 | 48.15273 | -117.43492 | 218° | 33km/h | 36422m | 6.2m/s | -33.1°C | 0% | 0hPa | 0V | 00:00:00 | 00:00:00 | 00:00:00 | |
| WB7NNF | 2026-09-03 07:20:40 | 48.15393 | -117.43464 | 243° | 11km/h | 36282m | 6.8m/s | -33.8°C | 0% | 0hPa | 0V | 00:00:00 | 00:00:00 | 00:00:00 | |
| WB7NNF | 2026-09-03 07:20:19 | 48.15453 | -117.43388 | 181° | 11km/h | 36146m | 7.3m/s | -34.3°C | 0% | 0hPa | 0V | 00:00:00 | 00:00:00 | 00:00:00 | |
| WB7NNF | 2026-09-03 07:19:59 | 48.15555 | -117.43392 | 173° | 38km/h | 36007m | 6.5m/s | -35.0°C | 0% | 0hPa | 0V | 00:00:00 | 00:00:00 | 00:00:00 | |
| WB7NNF | 2026-09-03 07:19:38 | 48.15664 | -117.43484 | 170° | 16km/h | 35876m | 6.3m/s | -35.0°C | 0% | 0hPa | 0V | 00:00:00 | 00:00:00 | 00:00:00 | |
| WB7NNF | 2026-09-03 07:19:18 | 48.15726 | -117.43617 | 98° | 5km/h | 35745m | 5.8m/s | -34.7°C | 0% | 0hPa | 0V | 00:00:00 | 00:00:00 | 00:00:00 | |
| WB7NNF | 2026-09-03 07:18:57 | 48.15761 | -117.43734 | 55° | 11km/h | 35625m | 6.0m/s | -34.2°C | 0% | 0hPa | 0V | 00:00:00 | 00:00:00 | 00:00:00 | |
| WB7NNF | 2026-09-03 07:18:37 | 48.15789 | -117.43810 | 44° | 15km/h | 35504m | 5.5m/s | -34.4°C | 0% | 0hPa | 0V | 00:00:00 | 00:00:00 | 00:00:00 | |
| WB7NNF | 2026-09-03 07:18:16 | 48.15794 | -117.43827 | 44° | 15km/h | 35386m | 5.8m/s | -35.3°C | 0% | 0hPa | 0V | 00:00:00 | 00:00:00 | 00:00:00 | |
| WB7NNF | 2026-09-03 07:17:56 | 48.15790 | -117.43834 | 44° | 9km/h | 35262m | 5.9m/s | -35.6°C | 0% | 0hPa | 0V | 00:00:00 | 00:00:00 | 00:00:00 | |
| WB7NNF | 2026-09-03 07:17:35 | 48.15804 | -117.43845 | 134° | 18km/h | 35143m | 5.8m/s | -35.3°C | 0% | 0hPa | 0V | 00:00:00 | 00:00:00 | 00:00:00 | |
| WB7NNF | 2026-09-03 07:17:15 | 48.15802 | -117.43882 | 175° | 20km/h | 35011m | 5.3m/s | -35.0°C | 0% | 0hPa | 0V | 00:00:00 | 00:00:00 | 00:00:00 | |
| WB7NNF | 2026-09-03 07:16:54 | 48.15758 | -117.43835 | 300° | 24km/h | 34884m | 6.1m/s | -34.7°C | 0% | 0hPa | 0V | 00:00:00 | 00:00:00 | 00:00:00 | |
| WB7NNF | 2026-09-03 07:16:34 | 48.15719 | -117.43716 | 294° | 18km/h | 34747m | 6.5m/s | -35.7°C | 0% | 0hPa | 0V | 00:00:00 | 00:00:00 | 00:00:00 | |
| WB7NNF | 2026-09-03 07:16:13 | 48.15686 | -117.43598 | 337° | 18km/h | 34612m | 4.5m/s | -35.9°C | 0% | 0hPa | 0V | 00:00:00 | 00:00:00 | 00:00:00 | |
| WB7NNF | 2026-09-03 07:15:53 | 48.15647 | -117.43674 | 97° | 38km/h | 34468m | 3.9m/s | -36.1°C | 0% | 0hPa | 0V | 00:00:00 | 00:00:00 | 00:00:00 | |
| WB7NNF | 2026-09-03 07:15:32 | 48.15645 | -117.43742 | 125° | 24km/h | 34335m | 4.7m/s | -36.5°C | 0% | 0hPa | 0V | 00:00:00 | 00:00:00 | 00:00:00 | |
| WB7NNF | 2026-09-03 07:15:11 | 48.15675 | -117.43814 | 240° | 2km/h | 34206m | 7.1m/s | -37.4°C | 0% | 0hPa | 0V | 00:00:00 | 00:00:00 | 00:00:00 | |
| WB7NNF | 2026-09-03 07:14:51 | 48.15712 | -117.43960 | 109° | 18km/h | 34088m | 5.4m/s | -38.6°C | 0% | 0hPa | 0V | 00:00:00 | 00:00:00 | 00:00:00 | |
| WB7NNF | 2026-09-03 07:14:30 | 48.15733 | -117.44082 | 99° | 20km/h | 33983m | 8.2m/s | -39.3°C | 0% | 0hPa | 0V | 00:00:00 | 00:00:00 | 00:00:00 | |
| WB7NNF | 2026-09-03 07:14:10 | 48.15712 | -117.44197 | 50° | 13km/h | 33867m | 5.8m/s | -39.8°C | 0% | 0hPa | 0V | 00:00:00 | 00:00:00 | 00:00:00 | |
| WB7NNF | 2026-09-03 07:13:48 | 48.15711 | -117.44233 | 234° | 9km/h | 33758m | -3.6m/s | -40.1°C | 0% | 0hPa | 0V | 00:00:00 | 00:00:00 | 00:00:00 | |
| WB7NNF | 2026-09-03 07:13:27 | 48.15780 | -117.44344 | 133° | 20km/h | 33627m | 5.8m/s | -40.4°C | 0% | 0hPa | 0V | 00:00:00 | 00:00:00 | 00:00:00 | |
| WB7NNF | 2026-09-03 07:13:06 | 48.15857 | -117.44486 | 247° | 11km/h | 33522m | 18.4m/s | -40.5°C | 0% | 0hPa | 0V | 00:00:00 | 00:00:00 | 00:00:00 | |
| WB7NNF | 2026-09-03 07:12:46 | 48.15917 | -117.44592 | 123° | 47km/h | 33379m | 7.3m/s | -41.5°C | 0% | 0hPa | 0V | 00:00:00 | 00:00:00 | 00:00:00 | |
| WB7NNF | 2026-09-03 07:12:25 | 48.16011 | -117.44671 | 132° | 29km/h | 33250m | 7.1m/s | -41.7°C | 0% | 0hPa | 0V | 00:00:00 | 00:00:00 | 00:00:00 | |
| WB7NNF | 2026-09-03 07:12:05 | 48.16073 | -117.44743 | 137° | 7km/h | 33091m | 6.6m/s | -41.7°C | 0% | 0hPa | 0V | 00:00:00 | 00:00:00 | 00:00:00 | |
| WB7NNF | 2026-09-03 07:11:44 | 48.16162 | -117.44809 | 186° | 37km/h | 32945m | 1.5m/s | -41.3°C | 0% | 0hPa | 0V | 00:00:00 | 00:00:00 | 00:00:00 | |
| WB7NNF | 2026-09-03 07:11:24 | 48.16216 | -117.44918 | 64° | 27km/h | 32787m | 3.6m/s | -41.3°C | 0% | 0hPa | 0V | 00:00:00 | 00:00:00 | 00:00:00 | |
| WB7NNF | 2026-09-03 07:11:03 | 48.16281 | -117.44932 | 261° | 35km/h | 32643m | 2.4m/s | -41.9°C | 0% | 0hPa | 0V | 00:00:00 | 00:00:00 | 00:00:00 | |
| WB7NNF | 2026-09-03 07:10:43 | 48.16321 | -117.44892 | 178° | 7km/h | 32498m | 3.7m/s | -41.7°C | 0% | 0hPa | 0V | 00:00:00 | 00:00:00 | 00:00:00 | |
| WB7NNF | 2026-09-03 07:10:22 | 48.16365 | -117.44890 | 202° | 9km/h | 32373m | 9.2m/s | -41.5°C | 0% | 0hPa | 0V | 00:00:00 | 00:00:00 | 00:00:00 | |
| WB7NNF | 2026-09-03 07:09:41 | 48.16404 | -117.44839 | 155° | 7km/h | 32123m | 2.1m/s | -41.5°C | 0% | 0hPa | 0V | 00:00:00 | 00:00:00 | 00:00:00 | |
| WB7NNF | 2026-09-03 07:09:19 | 48.16517 | -117.44819 | 181° | 26km/h | 31998m | 3.6m/s | -42.8°C | 0% | 0hPa | 0V | 00:00:00 | 00:00:00 | 00:00:00 | |
| WB7NNF | 2026-09-03 07:08:58 | 48.16582 | -117.44854 | 220° | 9km/h | 31887m | 4.6m/s | -43.3°C | 0% | 0hPa | 0V | 00:00:00 | 00:00:00 | 00:00:00 | |
| WB7NNF | 2026-09-03 07:08:36 | 48.16717 | -117.44758 | 225° | 18km/h | 31757m | 8.8m/s | -43.4°C | 0% | 0hPa | 0V | 00:00:00 | 00:00:00 | 00:00:00 | |
| WB7NNF | 2026-09-03 07:08:15 | 48.16870 | -117.44707 | 195° | 42km/h | 31651m | -0.6m/s | -43.3°C | 0% | 0hPa | 0V | 00:00:00 | 00:00:00 | 00:00:00 | |
| WB7NNF | 2026-09-03 07:07:54 | 48.17038 | -117.44739 | 162° | 42km/h | 31507m | -0.3m/s | -43.3°C | 0% | 0hPa | 0V | 00:00:00 | 00:00:00 | 00:00:00 | |
| WB7NNF | 2026-09-03 07:07:10 | 48.17202 | -117.44894 | 317° | 62km/h | 31196m | 5.2m/s | -44.7°C | 0% | 0hPa | 0V | 00:00:00 | 00:00:00 | 00:00:00 | |
| WB7NNF | 2026-09-03 07:06:48 | 48.17218 | -117.44923 | 192° | 26km/h | 31043m | 5.3m/s | -45.3°C | 0% | 0hPa | 0V | 00:00:00 | 00:00:00 | 00:00:00 | |
| WB7NNF | 2026-09-03 07:06:27 | 48.17258 | -117.44928 | 265° | 26km/h | 30891m | -0.0m/s | -45.9°C | 0% | 0hPa | 0V | 00:00:00 | 00:00:00 | 00:00:00 | |
| WB7NNF | 2026-09-03 07:06:05 | 48.17312 | -117.44920 | 202° | 22km/h | 30750m | 6.8m/s | -45.9°C | 0% | 0hPa | 0V | 00:00:00 | 00:00:00 | 00:00:00 | |
| WB7NNF | 2026-09-03 07:05:44 | 48.17371 | -117.44920 | 190° | 33km/h | 30594m | 9.8m/s | -46.1°C | 0% | 0hPa | 0V | 00:00:00 | 00:00:00 | 00:00:00 | |
| WB7NNF | 2026-09-03 07:05:23 | 48.17436 | -117.44960 | 188° | 15km/h | 30475m | 9.1m/s | -46.2°C | 0% | 0hPa | 0V | 00:00:00 | 00:00:00 | 00:00:00 | |
| WB7NNF | 2026-09-03 07:05:00 | 48.17485 | -117.44946 | 142° | 31km/h | 30318m | 8.5m/s | -46.4°C | 0% | 0hPa | 0V | 00:00:00 | 00:00:00 | 00:00:00 | |
| WB7NNF | 2026-09-03 07:04:37 | 48.17518 | -117.44932 | 183° | 35km/h | 30177m | -2.3m/s | -46.4°C | 0% | 0hPa | 0V | 00:00:00 | 00:00:00 | 00:00:00 | |
| WB7NNF | 2026-09-03 07:04:15 | 48.17583 | -117.44970 | 187° | 22km/h | 30042m | -1.0m/s | -46.5°C | 0% | 0hPa | 0V | 00:00:00 | 00:00:00 | 00:00:00 | |
| WB7NNF | 2026-09-03 07:03:54 | 48.17633 | -117.45007 | 225° | 18km/h | 29910m | -2.1m/s | -46.5°C | 0% | 0hPa | 0V | 00:00:00 | 00:00:00 | 00:00:00 | |
| WB7NNF | 2026-09-03 07:03:33 | 48.17713 | -117.45077 | 341° | 38km/h | 29789m | 15.2m/s | -46.3°C | 0% | 0hPa | 0V | 00:00:00 | 00:00:00 | 00:00:00 | |
| WB7NNF | 2026-09-03 07:03:13 | 48.17727 | -117.45138 | 110° | 31km/h | 29654m | 5.0m/s | -46.2°C | 0% | 0hPa | 0V | 00:00:00 | 00:00:00 | 00:00:00 | |
| WB7NNF | 2026-09-03 07:02:52 | 48.17678 | -117.45219 | 56° | 9km/h | 29537m | 6.5m/s | -46.7°C | 0% | 0hPa | 0V | 00:00:00 | 00:00:00 | 00:00:00 | |
| WB7NNF | 2026-09-03 07:02:32 | 48.17645 | -117.45266 | 180° | 31km/h | 29407m | -1.8m/s | -47.4°C | 0% | 0hPa | 0V | 00:00:00 | 00:00:00 | 00:00:00 | |
| WB7NNF | 2026-09-03 07:02:11 | 48.17661 | -117.45327 | 155° | 29km/h | 29283m | -2.4m/s | -47.5°C | 0% | 0hPa | 0V | 00:00:00 | 00:00:00 | 00:00:00 | |
| WB7NNF | 2026-09-03 07:01:49 | 48.17664 | -117.45476 | 113° | 31km/h | 29147m | -1.6m/s | -47.6°C | 0% | 0hPa | 0V | 00:00:00 | 00:00:00 | 00:00:00 | |
| WB7NNF | 2026-09-03 07:01:28 | 48.17626 | -117.45655 | 96° | 29km/h | 29020m | 0.9m/s | -48.1°C | 0% | 0hPa | 0V | 00:00:00 | 00:00:00 | 00:00:00 | |
| WB7NNF | 2026-09-03 07:01:08 | 48.17574 | -117.45748 | 101° | 24km/h | 28887m | 2.7m/s | -47.9°C | 0% | 0hPa | 0V | 00:00:00 | 00:00:00 | 00:00:00 | |
| WB7NNF | 2026-09-03 07:00:47 | 48.17523 | -117.45808 | 127° | 16km/h | 28759m | 9.9m/s | -48.5°C | 0% | 0hPa | 0V | 00:00:00 | 00:00:00 | 00:00:00 | |
| WB7NNF | 2026-09-03 07:00:27 | 48.17496 | -117.45860 | 236° | 37km/h | 28641m | 1.3m/s | -48.5°C | 0% | 0hPa | 0V | 00:00:00 | 00:00:00 | 00:00:00 | |
| WB7NNF | 2026-09-03 07:00:06 | 48.17501 | -117.45847 | 300° | 20km/h | 28508m | 0.0m/s | -48.9°C | 0% | 0hPa | 0V | 00:00:00 | 00:00:00 | 00:00:00 | |
| WB7NNF | 2026-09-03 06:59:44 | 48.17549 | -117.45891 | 71° | 5km/h | 28382m | 1.2m/s | -49.2°C | 0% | 0hPa | 0V | 00:00:00 | 00:00:00 | 00:00:00 | |
| WB7NNF | 2026-09-03 06:59:23 | 48.17579 | -117.45976 | 38° | 18km/h | 28255m | 2.9m/s | -49.4°C | 0% | 0hPa | 0V | 00:00:00 | 00:00:00 | 00:00:00 | |
| WB7NNF | 2026-09-03 06:59:03 | 48.17564 | -117.46027 | 343° | 27km/h | 28121m | 7.6m/s | -49.4°C | 0% | 0hPa | 0V | 00:00:00 | 00:00:00 | 00:00:00 | |
| WB7NNF | 2026-09-03 06:58:22 | 48.17425 | -117.46031 | 335° | 44km/h | 27864m | 11.0m/s | -49.6°C | 0% | 0hPa | 0V | 00:00:00 | 00:00:00 | 00:00:00 | |
| WB7NNF | 2026-09-03 06:58:01 | 48.17359 | -117.46022 | 20° | 42km/h | 27738m | 8.8m/s | -49.4°C | 0% | 0hPa | 0V | 00:00:00 | 00:00:00 | 00:00:00 | |
| WB7NNF | 2026-09-03 06:57:41 | 48.17310 | -117.46044 | 25° | 49km/h | 27609m | -0.1m/s | -49.9°C | 0% | 0hPa | 0V | 00:00:00 | 00:00:00 | 00:00:00 | |
| WB7NNF | 2026-09-03 06:57:20 | 48.17227 | -117.46034 | 309° | 60km/h | 27494m | 10.6m/s | -49.5°C | 0% | 0hPa | 0V | 00:00:00 | 00:00:00 | 00:00:00 | |
| WB7NNF | 2026-09-03 06:57:00 | 48.17064 | -117.45957 | 16° | 53km/h | 27372m | 2.9m/s | -49.4°C | 0% | 0hPa | 0V | 00:00:00 | 00:00:00 | 00:00:00 | |
| WB7NNF | 2026-09-03 06:56:37 | 48.16902 | -117.45857 | 274° | 51km/h | 27245m | 5.3m/s | -49.8°C | 0% | 0hPa | 0V | 00:00:00 | 00:00:00 | 00:00:00 | |
| WB7NNF | 2026-09-03 06:56:17 | 48.16798 | -117.45737 | 295° | 40km/h | 27115m | 1.0m/s | -49.9°C | 0% | 0hPa | 0V | 00:00:00 | 00:00:00 | 00:00:00 | |
| WB7NNF | 2026-09-03 06:55:56 | 48.16760 | -117.45601 | 242° | 58km/h | 27000m | 6.6m/s | -49.8°C | 0% | 0hPa | 0V | 00:00:00 | 00:00:00 | 00:00:00 | |
| WB7NNF | 2026-09-03 06:55:36 | 48.16747 | -117.45430 | 105° | 16km/h | 26886m | 14.1m/s | -49.5°C | 0% | 0hPa | 0V | 00:00:00 | 00:00:00 | 00:00:00 | |
| WB7NNF | 2026-09-03 06:55:15 | 48.16777 | -117.45317 | 189° | 44km/h | 26762m | -1.7m/s | -49.1°C | 0% | 0hPa | 0V | 00:00:00 | 00:00:00 | 00:00:00 | |
| WB7NNF | 2026-09-03 06:54:53 | 48.16837 | -117.45216 | 212° | 18km/h | 26631m | 9.3m/s | -49.0°C | 0% | 0hPa | 0V | 00:00:00 | 00:00:00 | 00:00:00 | |
| WB7NNF | 2026-09-03 06:54:32 | 48.16901 | -117.45089 | 202° | 18km/h | 26515m | 8.4m/s | -49.6°C | 0% | 0hPa | 0V | 00:00:00 | 00:00:00 | 00:00:00 | |
| WB7NNF | 2026-09-03 06:54:12 | 48.16983 | -117.45005 | 327° | 20km/h | 26387m | 11.8m/s | -49.7°C | 0% | 0hPa | 0V | 00:00:00 | 00:00:00 | 00:00:00 | |
| WB7NNF | 2026-09-03 06:53:50 | 48.17058 | -117.44969 | 283° | 49km/h | 26266m | 4.5m/s | -50.3°C | 0% | 0hPa | 0V | 00:00:00 | 00:00:00 | 00:00:00 | |
| WB7NNF | 2026-09-03 06:53:29 | 48.17078 | -117.44878 | 287° | 44km/h | 26148m | -0.9m/s | -50.9°C | 0% | 0hPa | 0V | 00:00:00 | 00:00:00 | 00:00:00 | |
| WB7NNF | 2026-09-03 06:53:05 | 48.17091 | -117.44720 | 245° | 22km/h | 26010m | 1.8m/s | -50.8°C | 0% | 0hPa | 0V | 00:00:00 | 00:00:00 | 00:00:00 | |
| WB7NNF | 2026-09-03 06:52:44 | 48.17128 | -117.44552 | 233° | 20km/h | 25890m | 10.2m/s | -51.3°C | 0% | 0hPa | 0V | 00:00:00 | 00:00:00 | 00:00:00 | |
| WB7NNF | 2026-09-03 06:52:23 | 48.17192 | -117.44397 | 308° | 38km/h | 25760m | 1.5m/s | -51.4°C | 0% | 0hPa | 0V | 00:00:00 | 00:00:00 | 00:00:00 | |
| WB7NNF | 2026-09-03 06:52:01 | 48.17288 | -117.44289 | 195° | 18km/h | 25625m | 12.3m/s | -51.4°C | 0% | 0hPa | 0V | 00:00:00 | 00:00:00 | 00:00:00 | |
| WB7NNF | 2026-09-03 06:51:40 | 48.17397 | -117.44303 | 161° | 22km/h | 25507m | 13.4m/s | -51.3°C | 0% | 0hPa | 0V | 00:00:00 | 00:00:00 | 00:00:00 | |
| WB7NNF | 2026-09-03 06:51:18 | 48.17487 | -117.44360 | 1° | 11km/h | 25370m | 0.7m/s | -51.8°C | 0% | 0hPa | 0V | 00:00:00 | 00:00:00 | 00:00:00 | |
| WB7NNF | 2026-09-03 06:50:41 | 48.17574 | -117.44347 | 141° | 20km/h | 25151m | 4.3m/s | -52.2°C | 0% | 0hPa | 0V | 00:00:00 | 00:00:00 | 00:00:00 | |
| WB7NNF | 2026-09-03 06:50:19 | 48.17554 | -117.44397 | 352° | 46km/h | 25009m | 4.1m/s | -52.4°C | 0% | 0hPa | 0V | 00:00:00 | 00:00:00 | 00:00:00 | |
| WB7NNF | 2026-09-03 06:49:36 | 48.17477 | -117.44212 | 239° | 27km/h | 24764m | 4.5m/s | -52.2°C | 0% | 0hPa | 0V | 00:00:00 | 00:00:00 | 00:00:00 | |
| WB7NNF | 2026-09-03 06:49:15 | 48.17412 | -117.44106 | 356° | 42km/h | 24636m | 2.2m/s | -52.0°C | 0% | 0hPa | 0V | 00:00:00 | 00:00:00 | 00:00:00 | |
| WB7NNF | 2026-09-03 06:48:55 | 48.17366 | -117.44014 | 26° | 26km/h | 24526m | 2.8m/s | -51.8°C | 0% | 0hPa | 0V | 00:00:00 | 00:00:00 | 00:00:00 | |
| WB7NNF | 2026-09-03 06:48:34 | 48.17343 | -117.43882 | 252° | 51km/h | 24405m | 8.9m/s | -51.5°C | 0% | 0hPa | 0V | 00:00:00 | 00:00:00 | 00:00:00 | |
| WB7NNF | 2026-09-03 06:48:14 | 48.17342 | -117.43810 | 244° | 51km/h | 24291m | 10.6m/s | -51.1°C | 0% | 0hPa | 0V | 00:00:00 | 00:00:00 | 00:00:00 | |
| WB7NNF | 2026-09-03 06:47:53 | 48.17396 | -117.43804 | 217° | 35km/h | 24184m | 1.2m/s | -51.5°C | 0% | 0hPa | 0V | 00:00:00 | 00:00:00 | 00:00:00 | |
| WB7NNF | 2026-09-03 06:47:27 | 48.17399 | -117.43826 | 270° | 31km/h | 24052m | -1.0m/s | -51.7°C | 0% | 0hPa | 0V | 00:00:00 | 00:00:00 | 00:00:00 | |
| WB7NNF | 2026-09-03 06:47:06 | 48.17367 | -117.43813 | 65° | 31km/h | 23939m | 9.2m/s | -51.7°C | 0% | 0hPa | 0V | 00:00:00 | 00:00:00 | 00:00:00 | |
| WB7NNF | 2026-09-03 06:46:44 | 48.17410 | -117.43768 | 229° | 37km/h | 23823m | 10.4m/s | -52.0°C | 0% | 0hPa | 0V | 00:00:00 | 00:00:00 | 00:00:00 | |
| WB7NNF | 2026-09-03 06:46:22 | 48.17464 | -117.43742 | 107° | 26km/h | 23708m | 2.7m/s | -52.4°C | 0% | 0hPa | 0V | 00:00:00 | 00:00:00 | 00:00:00 | |
| WB7NNF | 2026-09-03 06:46:01 | 48.17525 | -117.43795 | 252° | 33km/h | 23590m | 2.3m/s | -52.8°C | 0% | 0hPa | 0V | 00:00:00 | 00:00:00 | 00:00:00 | |
| WB7NNF | 2026-09-03 06:45:40 | 48.17549 | -117.43932 | 86° | 55km/h | 23464m | 6.7m/s | -52.8°C | 0% | 0hPa | 0V | 00:00:00 | 00:00:00 | 00:00:00 | |
| WB7NNF | 2026-09-03 06:45:20 | 48.17540 | -117.44121 | 122° | 53km/h | 23356m | 1.8m/s | -52.4°C | 0% | 0hPa | 0V | 00:00:00 | 00:00:00 | 00:00:00 | |
| WB7NNF | 2026-09-03 06:44:59 | 48.17528 | -117.44250 | 65° | 18km/h | 23239m | 4.7m/s | -51.5°C | 0% | 0hPa | 0V | 00:00:00 | 00:00:00 | 00:00:00 | |
| WB7NNF | 2026-09-03 06:44:37 | 48.17516 | -117.44306 | 206° | 37km/h | 23118m | 8.5m/s | -50.9°C | 0% | 0hPa | 0V | 00:00:00 | 00:00:00 | 00:00:00 | |
| WB7NNF | 2026-09-03 06:44:17 | 48.17502 | -117.44292 | 45° | 27km/h | 23002m | 8.5m/s | -50.9°C | 0% | 0hPa | 0V | 00:00:00 | 00:00:00 | 00:00:00 | |
| WB7NNF | 2026-09-03 06:43:56 | 48.17546 | -117.44346 | 190° | 26km/h | 22888m | 8.1m/s | -51.5°C | 0% | 0hPa | 0V | 00:00:00 | 00:00:00 | 00:00:00 | |
| WB7NNF | 2026-09-03 06:43:35 | 48.17525 | -117.44412 | 46° | 33km/h | 22774m | -1.4m/s | -52.4°C | 0% | 0hPa | 0V | 00:00:00 | 00:00:00 | 00:00:00 | |
| WB7NNF | 2026-09-03 06:43:14 | 48.17527 | -117.44477 | 146° | 16km/h | 22670m | 4.1m/s | -53.0°C | 0% | 0hPa | 0V | 00:00:00 | 00:00:00 | 00:00:00 | |
| WB7NNF | 2026-09-03 06:42:54 | 48.17592 | -117.44537 | 275° | 27km/h | 22561m | 4.0m/s | -53.3°C | 0% | 0hPa | 0V | 00:00:00 | 00:00:00 | 00:00:00 | |
| WB7NNF | 2026-09-03 06:42:33 | 48.17645 | -117.44714 | 96° | 44km/h | 22463m | 5.6m/s | -53.8°C | 0% | 0hPa | 0V | 00:00:00 | 00:00:00 | 00:00:00 | |
| WB7NNF | 2026-09-03 06:42:13 | 48.17711 | -117.44875 | 194° | 27km/h | 22352m | 1.4m/s | -53.3°C | 0% | 0hPa | 0V | 00:00:00 | 00:00:00 | 00:00:00 | |
| WB7NNF | 2026-09-03 06:41:21 | 48.17682 | -117.45145 | 0° | 0km/h | 22091m | 3.2m/s | -52.8°C | 0% | 0hPa | 0V | 00:00:00 | 00:00:00 | 00:00:00 | |
| WB7NNF | 2026-09-03 06:41:01 | 48.17606 | -117.45234 | 51° | 53km/h | 21976m | -0.5m/s | -52.2°C | 0% | 0hPa | 0V | 00:00:00 | 00:00:00 | 00:00:00 | |
| WB7NNF | 2026-09-03 06:40:40 | 48.17533 | -117.45299 | 83° | 29km/h | 21861m | 9.2m/s | -52.6°C | 0% | 0hPa | 0V | 00:00:00 | 00:00:00 | 00:00:00 | |
| WB7NNF | 2026-09-03 06:40:18 | 48.17460 | -117.45338 | 27° | 38km/h | 21744m | 5.6m/s | -53.4°C | 0% | 0hPa | 0V | 00:00:00 | 00:00:00 | 00:00:00 | |
| WB7NNF | 2026-09-03 06:39:57 | 48.17382 | -117.45296 | 165° | 18km/h | 21632m | 3.1m/s | -52.7°C | 0% | 0hPa | 0V | 00:00:00 | 00:00:00 | 00:00:00 | |
| WB7NNF | 2026-09-03 06:39:36 | 48.17327 | -117.45270 | 359° | 22km/h | 21500m | 4.6m/s | -52.2°C | 0% | 0hPa | 0V | 00:00:00 | 00:00:00 | 00:00:00 | |
| WB7NNF | 2026-09-03 06:39:14 | 48.17351 | -117.45200 | 240° | 18km/h | 21374m | 4.3m/s | -52.0°C | 0% | 0hPa | 0V | 00:00:00 | 00:00:00 | 00:00:00 | |
| WB7NNF | 2026-09-03 06:38:52 | 48.17361 | -117.45224 | 142° | 22km/h | 21243m | 4.7m/s | -52.1°C | 0% | 0hPa | 0V | 00:00:00 | 00:00:00 | 00:00:00 | |
| WB7NNF | 2026-09-03 06:38:31 | 48.17385 | -117.45244 | 267° | 26km/h | 21126m | 0.4m/s | -51.6°C | 0% | 0hPa | 0V | 00:00:00 | 00:00:00 | 00:00:00 | |
| WB7NNF | 2026-09-03 06:37:48 | 48.17336 | -117.45281 | 48° | 26km/h | 20901m | 4.4m/s | -51.8°C | 0% | 0hPa | 0V | 00:00:00 | 00:00:00 | 00:00:00 | |
| WB7NNF | 2026-09-03 06:37:26 | 48.17264 | -117.45340 | 20° | 18km/h | 20787m | 7.2m/s | -52.8°C | 0% | 0hPa | 0V | 00:00:00 | 00:00:00 | 00:00:00 | |
| WB7NNF | 2026-09-03 06:37:05 | 48.17137 | -117.45413 | 4° | 47km/h | 20683m | 0.8m/s | -53.0°C | 0% | 0hPa | 0V | 00:00:00 | 00:00:00 | 00:00:00 | |
| WB7NNF | 2026-09-03 06:36:43 | 48.17024 | -117.45426 | 323° | 26km/h | 20576m | 7.0m/s | -52.7°C | 0% | 0hPa | 0V | 00:00:00 | 00:00:00 | 00:00:00 | |
| WB7NNF | 2026-09-03 06:36:22 | 48.16910 | -117.45426 | 237° | 4km/h | 20465m | 9.2m/s | -52.2°C | 0% | 0hPa | 0V | 00:00:00 | 00:00:00 | 00:00:00 | |
| WB7NNF | 2026-09-03 06:36:00 | 48.16855 | -117.45453 | 6° | 31km/h | 20360m | 7.8m/s | -51.7°C | 0% | 0hPa | 0V | 00:00:00 | 00:00:00 | 00:00:00 | |
| WB7NNF | 2026-09-03 06:35:30 | 48.16797 | -117.45564 | 75° | 37km/h | 20204m | 9.4m/s | -51.3°C | 0% | 0hPa | 0V | 00:00:00 | 00:00:00 | 00:00:00 | |
| WB7NNF | 2026-09-03 06:35:08 | 48.16705 | -117.45646 | 344° | 62km/h | 20081m | 4.6m/s | -51.8°C | 0% | 0hPa | 0V | 00:00:00 | 00:00:00 | 00:00:00 | |
| WB7NNF | 2026-09-03 06:34:45 | 48.16573 | -117.45673 | 28° | 58km/h | 19946m | 0.6m/s | -51.0°C | 0% | 0hPa | 0V | 00:00:00 | 00:00:00 | 00:00:00 | |
| WB7NNF | 2026-09-03 06:34:23 | 48.16492 | -117.45730 | 201° | 29km/h | 19828m | 3.3m/s | -50.3°C | 0% | 0hPa | 0V | 00:00:00 | 00:00:00 | 00:00:00 | |
| WB7NNF | 2026-09-03 06:34:00 | 48.16453 | -117.45847 | 88° | 24km/h | 19707m | 5.7m/s | -51.8°C | 0% | 0hPa | 0V | 00:00:00 | 00:00:00 | 00:00:00 | |
| WB7NNF | 2026-09-03 06:33:40 | 48.16403 | -117.45955 | 44° | 35km/h | 19597m | 7.8m/s | -51.4°C | 0% | 0hPa | 0V | 00:00:00 | 00:00:00 | 00:00:00 | |
| WB7NNF | 2026-09-03 06:33:18 | 48.16320 | -117.46103 | 5° | 53km/h | 19471m | 3.3m/s | -51.8°C | 0% | 0hPa | 0V | 00:00:00 | 00:00:00 | 00:00:00 | |
| WB7NNF | 2026-09-03 06:32:55 | 48.16201 | -117.46258 | 44° | 20km/h | 19351m | 3.1m/s | -51.2°C | 0% | 0hPa | 0V | 00:00:00 | 00:00:00 | 00:00:00 | |
| WB7NNF | 2026-09-03 06:32:35 | 48.16101 | -117.46368 | 358° | 49km/h | 19236m | 0.5m/s | -50.8°C | 0% | 0hPa | 0V | 00:00:00 | 00:00:00 | 00:00:00 | |
| WB7NNF | 2026-09-03 06:32:11 | 48.16021 | -117.46505 | 21° | 38km/h | 19120m | 4.3m/s | -50.7°C | 0% | 0hPa | 0V | 00:00:00 | 00:00:00 | 00:00:00 | |
| WB7NNF | 2026-09-03 06:31:47 | 48.15876 | -117.46686 | 36° | 33km/h | 18998m | -1.0m/s | -51.0°C | 0% | 0hPa | 0V | 00:00:00 | 00:00:00 | 00:00:00 | |
| WB7NNF | 2026-09-03 06:31:24 | 48.15652 | -117.46879 | 349° | 24km/h | 18918m | -3.1m/s | -51.8°C | 0% | 0hPa | 0V | 00:00:00 | 00:00:00 | 00:00:00 | |
| WB7NNF | 2026-09-03 06:31:04 | 48.15476 | -117.46968 | 2° | 38km/h | 18842m | 6.7m/s | -52.1°C | 0% | 0hPa | 0V | 00:00:00 | 00:00:00 | 00:00:00 | |
| WB7NNF | 2026-09-03 06:30:42 | 48.15306 | -117.47031 | 293° | 26km/h | 18755m | 5.1m/s | -53.4°C | 0% | 0hPa | 0V | 00:00:00 | 00:00:00 | 00:00:00 | |
| WB7NNF | 2026-09-03 06:30:18 | 48.15145 | -117.47179 | 360° | 53km/h | 18657m | 2.5m/s | -53.8°C | 0% | 0hPa | 0V | 00:00:00 | 00:00:00 | 00:00:00 | |
| WB7NNF | 2026-09-03 06:29:56 | 48.14975 | -117.47372 | 6° | 40km/h | 18564m | 6.4m/s | -54.0°C | 0% | 0hPa | 0V | 00:00:00 | 00:00:00 | 00:00:00 | |
| WB7NNF | 2026-09-03 06:29:34 | 48.14764 | -117.47601 | 44° | 18km/h | 18457m | 4.9m/s | -53.5°C | 0% | 0hPa | 0V | 00:00:00 | 00:00:00 | 00:00:00 | |
| WB7NNF | 2026-09-03 06:29:13 | 48.14572 | -117.47806 | 57° | 40km/h | 18346m | 7.4m/s | -53.2°C | 0% | 0hPa | 0V | 00:00:00 | 00:00:00 | 00:00:00 | |
| WB7NNF | 2026-09-03 06:28:53 | 48.14404 | -117.47960 | 29° | 35km/h | 18233m | 7.0m/s | -52.7°C | 0% | 0hPa | 0V | 00:00:00 | 00:00:00 | 00:00:00 | |
| WB7NNF | 2026-09-03 06:28:32 | 48.14202 | -117.48128 | 30° | 42km/h | 18107m | 7.2m/s | -51.8°C | 0% | 0hPa | 0V | 00:00:00 | 00:00:00 | 00:00:00 | |
| WB7NNF | 2026-09-03 06:28:12 | 48.14054 | -117.48260 | 352° | 38km/h | 17978m | 4.9m/s | -50.8°C | 0% | 0hPa | 0V | 00:00:00 | 00:00:00 | 00:00:00 | |
| WB7NNF | 2026-09-03 06:27:51 | 48.13882 | -117.48403 | 17° | 2km/h | 17859m | 7.0m/s | -50.1°C | 0% | 0hPa | 0V | 00:00:00 | 00:00:00 | 00:00:00 | |
| WB7NNF | 2026-09-03 06:27:30 | 48.13720 | -117.48605 | 38° | 46km/h | 17733m | 5.4m/s | -50.1°C | 0% | 0hPa | 0V | 00:00:00 | 00:00:00 | 00:00:00 | |
| WB7NNF | 2026-09-03 06:27:08 | 48.13580 | -117.48819 | 49° | 22km/h | 17624m | 2.5m/s | -50.3°C | 0% | 0hPa | 0V | 00:00:00 | 00:00:00 | 00:00:00 | |
| WB7NNF | 2026-09-03 06:26:45 | 48.13403 | -117.49060 | 49° | 26km/h | 17503m | 2.5m/s | -49.6°C | 0% | 0hPa | 0V | 00:00:00 | 00:00:00 | 00:00:00 | |
| WB7NNF | 2026-09-03 06:26:25 | 48.13208 | -117.49285 | 44° | 35km/h | 17400m | 6.6m/s | -49.1°C | 0% | 0hPa | 0V | 00:00:00 | 00:00:00 | 00:00:00 | |
| WB7NNF | 2026-09-03 06:26:04 | 48.12980 | -117.49468 | 24° | 66km/h | 17306m | 1.4m/s | -49.1°C | 0% | 0hPa | 0V | 00:00:00 | 00:00:00 | 00:00:00 | |
| WB7NNF | 2026-09-03 06:25:42 | 48.12732 | -117.49640 | 23° | 44km/h | 17197m | 2.0m/s | -49.3°C | 0% | 0hPa | 0V | 00:00:00 | 00:00:00 | 00:00:00 | |
| WB7NNF | 2026-09-03 06:25:20 | 48.12447 | -117.49753 | 17° | 13km/h | 17102m | 2.0m/s | -49.3°C | 0% | 0hPa | 0V | 00:00:00 | 00:00:00 | 00:00:00 | |
| WB7NNF | 2026-09-03 06:24:59 | 48.12230 | -117.49846 | 7° | 55km/h | 17010m | 2.2m/s | -49.4°C | 0% | 0hPa | 0V | 00:00:00 | 00:00:00 | 00:00:00 | |
| WB7NNF | 2026-09-03 06:24:38 | 48.12031 | -117.49938 | 359° | 51km/h | 16916m | 6.9m/s | -49.2°C | 0% | 0hPa | 0V | 00:00:00 | 00:00:00 | 00:00:00 | |
| WB7NNF | 2026-09-03 06:24:17 | 48.11818 | -117.50018 | 37° | 33km/h | 16820m | 3.5m/s | -48.7°C | 0% | 0hPa | 0V | 00:00:00 | 00:00:00 | 00:00:00 | |
| WB7NNF | 2026-09-03 06:23:54 | 48.11583 | -117.50123 | 3° | 33km/h | 16710m | 4.5m/s | -48.9°C | 0% | 0hPa | 0V | 00:00:00 | 00:00:00 | 00:00:00 | |
| WB7NNF | 2026-09-03 06:23:33 | 48.11346 | -117.50171 | 353° | 26km/h | 16612m | 3.6m/s | -49.0°C | 0% | 0hPa | 0V | 00:00:00 | 00:00:00 | 00:00:00 | |
| WB7NNF | 2026-09-03 06:23:12 | 48.11137 | -117.50260 | 22° | 44km/h | 16520m | 6.8m/s | -49.6°C | 0% | 0hPa | 0V | 00:00:00 | 00:00:00 | 00:00:00 | |
| WB7NNF | 2026-09-03 06:22:52 | 48.10906 | -117.50378 | 56° | 26km/h | 16408m | 4.1m/s | -49.9°C | 0% | 0hPa | 0V | 00:00:00 | 00:00:00 | 00:00:00 | |
| WB7NNF | 2026-09-03 06:22:31 | 48.10695 | -117.50439 | 5° | 55km/h | 16319m | 6.7m/s | -50.0°C | 0% | 0hPa | 0V | 00:00:00 | 00:00:00 | 00:00:00 | |
| WB7NNF | 2026-09-03 06:22:09 | 48.10444 | -117.50560 | 20° | 44km/h | 16214m | 4.1m/s | -50.9°C | 0% | 0hPa | 0V | 00:00:00 | 00:00:00 | 00:00:00 | |
| WB7NNF | 2026-09-03 06:21:48 | 48.10187 | -117.50677 | 355° | 68km/h | 16118m | 2.6m/s | -50.6°C | 0% | 0hPa | 0V | 00:00:00 | 00:00:00 | 00:00:00 | |
| WB7NNF | 2026-09-03 06:21:26 | 48.09940 | -117.50797 | 361° | 69km/h | 16004m | 0.3m/s | -49.8°C | 0% | 0hPa | 0V | 00:00:00 | 00:00:00 | 00:00:00 | |
| WB7NNF | 2026-09-03 06:21:04 | 48.09717 | -117.50923 | 15° | 40km/h | 15897m | 7.0m/s | -49.7°C | 0% | 0hPa | 0V | 00:00:00 | 00:00:00 | 00:00:00 | |
| WB7NNF | 2026-09-03 06:20:44 | 48.09499 | -117.51032 | 55° | 57km/h | 15789m | 6.9m/s | -49.4°C | 0% | 0hPa | 0V | 00:00:00 | 00:00:00 | 00:00:00 | |
| WB7NNF | 2026-09-03 06:20:01 | 48.09038 | -117.51474 | 26° | 44km/h | 15587m | 6.0m/s | -49.6°C | 0% | 0hPa | 0V | 00:00:00 | 00:00:00 | 00:00:00 | |
| WB7NNF | 2026-09-03 06:19:40 | 48.08812 | -117.51662 | 36° | 64km/h | 15502m | 3.3m/s | -50.2°C | 0% | 0hPa | 0V | 00:00:00 | 00:00:00 | 00:00:00 | |
| WB7NNF | 2026-09-03 06:19:19 | 48.08590 | -117.51816 | 40° | 38km/h | 15412m | 6.4m/s | -50.3°C | 0% | 0hPa | 0V | 00:00:00 | 00:00:00 | 00:00:00 | |
| WB7NNF | 2026-09-03 06:18:59 | 48.08375 | -117.51891 | 360° | 27km/h | 15334m | 1.7m/s | -50.8°C | 0% | 0hPa | 0V | 00:00:00 | 00:00:00 | 00:00:00 | |
| WB7NNF | 2026-09-03 06:18:39 | 48.08192 | -117.51980 | 31° | 42km/h | 15252m | 2.9m/s | -51.0°C | 0% | 0hPa | 0V | 00:00:00 | 00:00:00 | 00:00:00 | |
| WB7NNF | 2026-09-03 06:18:18 | 48.08029 | -117.51993 | 42° | 29km/h | 15155m | 6.7m/s | -51.3°C | 0% | 0hPa | 0V | 00:00:00 | 00:00:00 | 00:00:00 | |
| WB7NNF | 2026-09-03 06:17:57 | 48.07923 | -117.52006 | 325° | 40km/h | 15053m | 3.6m/s | -50.4°C | 0% | 0hPa | 0V | 00:00:00 | 00:00:00 | 00:00:00 | |
| WB7NNF | 2026-09-03 06:17:33 | 48.07817 | -117.52012 | 48° | 24km/h | 14936m | 7.8m/s | -49.3°C | 0% | 0hPa | 0V | 00:00:00 | 00:00:00 | 00:00:00 | |
| WB7NNF | 2026-09-03 06:17:12 | 48.07740 | -117.52045 | 25° | 37km/h | 14819m | 5.0m/s | -48.3°C | 0% | 0hPa | 0V | 00:00:00 | 00:00:00 | 00:00:00 | |
| WB7NNF | 2026-09-03 06:16:50 | 48.07673 | -117.52110 | 354° | 38km/h | 14706m | 3.2m/s | -47.6°C | 0% | 0hPa | 0V | 00:00:00 | 00:00:00 | 00:00:00 | |
| WB7NNF | 2026-09-03 06:16:29 | 48.07597 | -117.52237 | 7° | 37km/h | 14588m | 4.3m/s | -47.0°C | 0% | 0hPa | 0V | 00:00:00 | 00:00:00 | 00:00:00 | |
| WB7NNF | 2026-09-03 06:16:05 | 48.07546 | -117.52419 | 26° | 31km/h | 14471m | 5.6m/s | -46.6°C | 0% | 0hPa | 0V | 00:00:00 | 00:00:00 | 00:00:00 | |
| WB7NNF | 2026-09-03 06:15:45 | 48.07481 | -117.52615 | 48° | 53km/h | 14363m | 3.5m/s | -46.7°C | 0% | 0hPa | 0V | 00:00:00 | 00:00:00 | 00:00:00 | |
| WB7NNF | 2026-09-03 06:15:24 | 48.07397 | -117.52878 | 54° | 35km/h | 14254m | 4.2m/s | -47.1°C | 0% | 0hPa | 0V | 00:00:00 | 00:00:00 | 00:00:00 | |
| WB7NNF | 2026-09-03 06:15:04 | 48.07302 | -117.53202 | 84° | 68km/h | 14146m | 5.2m/s | -46.7°C | 0% | 0hPa | 0V | 00:00:00 | 00:00:00 | 00:00:00 | |
| WB7NNF | 2026-09-03 06:14:43 | 48.07151 | -117.53565 | 58° | 58km/h | 14043m | 6.7m/s | -46.6°C | 0% | 0hPa | 0V | 00:00:00 | 00:00:00 | 00:00:00 | |
| WB7NNF | 2026-09-03 06:14:22 | 48.06957 | -117.53940 | 45° | 49km/h | 13952m | 4.6m/s | -46.5°C | 0% | 0hPa | 0V | 00:00:00 | 00:00:00 | 00:00:00 | |
| WB7NNF | 2026-09-03 06:13:41 | 48.06429 | -117.54643 | 27° | 64km/h | 13790m | 3.4m/s | -47.4°C | 0% | 0hPa | 0V | 00:00:00 | 00:00:00 | 00:00:00 | |
| WB7NNF | 2026-09-03 06:13:21 | 48.06125 | -117.54908 | 28° | 57km/h | 13712m | 4.7m/s | -47.7°C | 0% | 0hPa | 0V | 00:00:00 | 00:00:00 | 00:00:00 | |
| WB7NNF | 2026-09-03 06:13:00 | 48.05891 | -117.55157 | 36° | 55km/h | 13633m | 5.5m/s | -49.2°C | 0% | 0hPa | 0V | 00:00:00 | 00:00:00 | 00:00:00 | |
| WB7NNF | 2026-09-03 06:12:40 | 48.05649 | -117.55447 | 40° | 57km/h | 13550m | 5.1m/s | -49.5°C | 0% | 0hPa | 0V | 00:00:00 | 00:00:00 | 00:00:00 | |
| WB7NNF | 2026-09-03 06:12:20 | 48.05384 | -117.55723 | 21° | 51km/h | 13462m | 4.7m/s | -49.5°C | 0% | 0hPa | 0V | 00:00:00 | 00:00:00 | 00:00:00 | |
| WB7NNF | 2026-09-03 06:11:59 | 48.05109 | -117.55963 | 22° | 51km/h | 13365m | 4.6m/s | -49.6°C | 0% | 0hPa | 0V | 00:00:00 | 00:00:00 | 00:00:00 | |
| WB7NNF | 2026-09-03 06:11:41 | 48.04856 | -117.56133 | 352° | 40km/h | 13265m | 7.1m/s | -50.1°C | 0% | 0hPa | 0V | 00:00:00 | 00:00:00 | 00:00:00 | |
| WB7NNF | 2026-09-03 06:11:18 | 48.04614 | -117.56296 | 36° | 58km/h | 13158m | 5.6m/s | -49.6°C | 0% | 0hPa | 0V | 00:00:00 | 00:00:00 | 00:00:00 | |
| WB7NNF | 2026-09-03 06:10:57 | 48.04391 | -117.56494 | 35° | 53km/h | 13053m | 2.3m/s | -49.6°C | 0% | 0hPa | 0V | 00:00:00 | 00:00:00 | 00:00:00 | |
| WB7NNF | 2026-09-03 06:10:37 | 48.04164 | -117.56602 | 11° | 33km/h | 12951m | 6.8m/s | -49.6°C | 0% | 0hPa | 0V | 00:00:00 | 00:00:00 | 00:00:00 | |
| WB7NNF | 2026-09-03 06:10:16 | 48.03962 | -117.56644 | 345° | 15km/h | 12851m | 5.0m/s | -49.4°C | 0% | 0hPa | 0V | 00:00:00 | 00:00:00 | 00:00:00 | |
| WB7NNF | 2026-09-03 06:09:55 | 48.03780 | -117.56719 | 7° | 55km/h | 12752m | 4.3m/s | -48.7°C | 0% | 0hPa | 0V | 00:00:00 | 00:00:00 | 00:00:00 | |
| WB7NNF | 2026-09-03 06:09:35 | 48.03557 | -117.56893 | 54° | 51km/h | 12643m | 3.9m/s | -48.9°C | 0% | 0hPa | 0V | 00:00:00 | 00:00:00 | 00:00:00 | |
| WB7NNF | 2026-09-03 06:08:54 | 48.02998 | -117.57380 | 43° | 66km/h | 12473m | 4.2m/s | -49.8°C | 0% | 0hPa | 0V | 00:00:00 | 00:00:00 | 00:00:00 | |
| WB7NNF | 2026-09-03 06:08:33 | 48.02687 | -117.57603 | 37° | 62km/h | 12394m | 1.7m/s | -50.3°C | 0% | 0hPa | 0V | 00:00:00 | 00:00:00 | 00:00:00 | |
| WB7NNF | 2026-09-03 06:08:13 | 48.02338 | -117.57824 | 31° | 66km/h | 12310m | 2.1m/s | -50.7°C | 0% | 0hPa | 0V | 00:00:00 | 00:00:00 | 00:00:00 | |
| WB7NNF | 2026-09-03 06:07:52 | 48.01984 | -117.57997 | 17° | 75km/h | 12223m | 5.2m/s | -51.4°C | 0% | 0hPa | 0V | 00:00:00 | 00:00:00 | 00:00:00 | |
| WB7NNF | 2026-09-03 06:07:32 | 48.01617 | -117.58147 | 3° | 78km/h | 12129m | 4.4m/s | -51.4°C | 0% | 0hPa | 0V | 00:00:00 | 00:00:00 | 00:00:00 | |
| WB7NNF | 2026-09-03 06:07:11 | 48.01251 | -117.58268 | 11° | 86km/h | 12030m | 3.6m/s | -52.5°C | 0% | 0hPa | 0V | 00:00:00 | 00:00:00 | 00:00:00 | |
| WB7NNF | 2026-09-03 06:06:51 | 48.00904 | -117.58369 | 353° | 64km/h | 11931m | 2.5m/s | -52.7°C | 0% | 0hPa | 0V | 00:00:00 | 00:00:00 | 00:00:00 | |
| WB7NNF | 2026-09-03 06:06:30 | 48.00575 | -117.58390 | 9° | 62km/h | 11821m | 4.5m/s | -52.3°C | 0% | 0hPa | 0V | 00:00:00 | 00:00:00 | 00:00:00 | |
| WB7NNF | 2026-09-03 06:06:10 | 48.00236 | -117.58354 | 13° | 66km/h | 11720m | 3.2m/s | -52.2°C | 0% | 0hPa | 0V | 00:00:00 | 00:00:00 | 00:00:00 | |
| WB7NNF | 2026-09-03 06:05:49 | 47.99910 | -117.58296 | 361° | 69km/h | 11624m | 3.6m/s | -52.2°C | 0% | 0hPa | 0V | 00:00:00 | 00:00:00 | 00:00:00 | |
| WB7NNF | 2026-09-03 06:05:29 | 47.99568 | -117.58192 | 353° | 66km/h | 11531m | 5.1m/s | -52.6°C | 0% | 0hPa | 0V | 00:00:00 | 00:00:00 | 00:00:00 | |
| WB7NNF | 2026-09-03 06:05:08 | 47.99255 | -117.58064 | 348° | 55km/h | 11443m | 3.5m/s | -52.3°C | 0% | 0hPa | 0V | 00:00:00 | 00:00:00 | 00:00:00 | |
| WB7NNF | 2026-09-03 06:04:48 | 47.98963 | -117.57949 | 348° | 80km/h | 11355m | 3.5m/s | -51.9°C | 0% | 0hPa | 0V | 00:00:00 | 00:00:00 | 00:00:00 | |
| WB7NNF | 2026-09-03 06:04:26 | 47.98696 | -117.57851 | 323° | 57km/h | 11268m | 3.0m/s | -52.0°C | 0% | 0hPa | 0V | 00:00:00 | 00:00:00 | 00:00:00 | |
| WB7NNF | 2026-09-03 06:03:51 | 47.98211 | -117.57851 | 16° | 58km/h | 11080m | 4.4m/s | -53.9°C | 0% | 0hPa | 0V | 00:00:00 | 00:00:00 | 00:00:00 | |
| WB7NNF | 2026-09-03 06:03:31 | 47.97759 | -117.58039 | 22° | 95km/h | 10990m | 6.7m/s | -56.9°C | 0% | 0hPa | 0V | 00:00:00 | 00:00:00 | 00:00:00 | |
| WB7NNF | 2026-09-03 06:03:01 | 47.97101 | -117.58153 | 11° | 73km/h | 10840m | 3.8m/s | -56.1°C | 0% | 0hPa | 0V | 00:00:00 | 00:00:00 | 00:00:00 | |
| WB7NNF | 2026-09-03 06:02:39 | 47.96690 | -117.58153 | 349° | 86km/h | 10757m | 5.7m/s | -55.4°C | 0% | 0hPa | 0V | 00:00:00 | 00:00:00 | 00:00:00 | |
| WB7NNF | 2026-09-03 06:02:18 | 47.96273 | -117.58114 | 3° | 88km/h | 10664m | 3.3m/s | -54.9°C | 0% | 0hPa | 0V | 00:00:00 | 00:00:00 | 00:00:00 | |
| WB7NNF | 2026-09-03 06:01:58 | 47.95857 | -117.58051 | 353° | 69km/h | 10577m | 3.7m/s | -54.2°C | 0% | 0hPa | 0V | 00:00:00 | 00:00:00 | 00:00:00 | |
| WB7NNF | 2026-09-03 06:01:37 | 47.95440 | -117.57937 | 1° | 73km/h | 10449m | 3.6m/s | -53.1°C | 0% | 0hPa | 0V | 00:00:00 | 00:00:00 | 00:00:00 | |
| WB7NNF | 2026-09-03 06:01:15 | 47.95027 | -117.57842 | 352° | 77km/h | 10357m | 3.5m/s | -52.8°C | 0% | 0hPa | 0V | 00:00:00 | 00:00:00 | 00:00:00 | |
| WB7NNF | 2026-09-03 06:00:50 | 47.94592 | -117.57760 | 351° | 69km/h | 10256m | 2.7m/s | -52.0°C | 0% | 0hPa | 0V | 00:00:00 | 00:00:00 | 00:00:00 | |
| WB7NNF | 2026-09-03 06:00:30 | 47.94204 | -117.57696 | 6° | 77km/h | 10164m | 2.8m/s | -51.3°C | 0% | 0hPa | 0V | 00:00:00 | 00:00:00 | 00:00:00 | |
| WB7NNF | 2026-09-03 06:00:09 | 47.93812 | -117.57619 | 352° | 66km/h | 10073m | 5.0m/s | -50.5°C | 0% | 0hPa | 0V | 00:00:00 | 00:00:00 | 00:00:00 | |
| WB7NNF | 2026-09-03 05:59:47 | 47.93391 | -117.57542 | 8° | 77km/h | 9977m | 4.6m/s | -49.6°C | 0% | 0hPa | 0V | 00:00:00 | 00:00:00 | 00:00:00 | |
| WB7NNF | 2026-09-03 05:59:25 | 47.92982 | -117.57484 | 354° | 64km/h | 9878m | 2.8m/s | -48.8°C | 0% | 0hPa | 0V | 00:00:00 | 00:00:00 | 00:00:00 | |
| WB7NNF | 2026-09-03 05:59:04 | 47.92587 | -117.57438 | 358° | 58km/h | 9785m | 3.5m/s | -47.9°C | 0% | 0hPa | 0V | 00:00:00 | 00:00:00 | 00:00:00 | |
| WB7NNF | 2026-09-03 05:58:43 | 47.92206 | -117.57417 | 3° | 66km/h | 9692m | 4.2m/s | -47.1°C | 0% | 0hPa | 0V | 00:00:00 | 00:00:00 | 00:00:00 | |
| WB7NNF | 2026-09-03 05:58:23 | 47.91795 | -117.57408 | 353° | 78km/h | 9598m | 6.6m/s | -46.3°C | 0% | 0hPa | 0V | 00:00:00 | 00:00:00 | 00:00:00 | |
| WB7NNF | 2026-09-03 05:58:02 | 47.91412 | -117.57401 | 5° | 82km/h | 9511m | 5.0m/s | -45.5°C | 0% | 0hPa | 0V | 00:00:00 | 00:00:00 | 00:00:00 | |
| WB7NNF | 2026-09-03 05:57:42 | 47.91021 | -117.57393 | 19° | 69km/h | 9422m | 3.9m/s | -44.8°C | 0% | 0hPa | 0V | 00:00:00 | 00:00:00 | 00:00:00 | |
| WB7NNF | 2026-09-03 05:57:21 | 47.90649 | -117.57406 | 3° | 88km/h | 9339m | 2.1m/s | -44.0°C | 0% | 0hPa | 0V | 00:00:00 | 00:00:00 | 00:00:00 | |
| WB7NNF | 2026-09-03 05:57:01 | 47.90268 | -117.57453 | 360° | 95km/h | 9234m | 5.9m/s | -43.1°C | 0% | 0hPa | 0V | 00:00:00 | 00:00:00 | 00:00:00 | |
| WB7NNF | 2026-09-03 05:56:40 | 47.89890 | -117.57491 | 6° | 57km/h | 9145m | 5.2m/s | -42.3°C | 0% | 0hPa | 0V | 00:00:00 | 00:00:00 | 00:00:00 | |
| WB7NNF | 2026-09-03 05:56:20 | 47.89488 | -117.57538 | 6° | 68km/h | 9046m | 5.0m/s | -41.5°C | 0% | 0hPa | 0V | 00:00:00 | 00:00:00 | 00:00:00 | |
| WB7NNF | 2026-09-03 05:55:59 | 47.89135 | -117.57614 | 16° | 89km/h | 8956m | 3.4m/s | -40.7°C | 0% | 0hPa | 0V | 00:00:00 | 00:00:00 | 00:00:00 | |
| WB7NNF | 2026-09-03 05:55:39 | 47.88766 | -117.57678 | 21° | 77km/h | 8866m | 3.5m/s | -40.0°C | 0% | 0hPa | 0V | 00:00:00 | 00:00:00 | 00:00:00 | |
| WB7NNF | 2026-09-03 05:55:18 | 47.88424 | -117.57732 | 21° | 60km/h | 8781m | 5.1m/s | -39.3°C | 0% | 0hPa | 0V | 00:00:00 | 00:00:00 | 00:00:00 | |
| WB7NNF | 2026-09-03 05:54:58 | 47.88090 | -117.57786 | 353° | 62km/h | 8693m | 2.7m/s | -38.7°C | 0% | 0hPa | 0V | 00:00:00 | 00:00:00 | 00:00:00 | |
| WB7NNF | 2026-09-03 05:54:37 | 47.87791 | -117.57835 | 5° | 64km/h | 8605m | 4.6m/s | -37.9°C | 0% | 0hPa | 0V | 00:00:00 | 00:00:00 | 00:00:00 | |
| WB7NNF | 2026-09-03 05:54:17 | 47.87462 | -117.57874 | 346° | 49km/h | 8490m | 4.3m/s | -37.0°C | 0% | 0hPa | 0V | 00:00:00 | 00:00:00 | 00:00:00 | |
| WB7NNF | 2026-09-03 05:53:56 | 47.87182 | -117.57928 | 3° | 69km/h | 8390m | 3.8m/s | -36.1°C | 0% | 0hPa | 0V | 00:00:00 | 00:00:00 | 00:00:00 | |
| WB7NNF | 2026-09-03 05:53:35 | 47.86902 | -117.57994 | 29° | 44km/h | 8282m | 3.0m/s | -35.1°C | 0% | 0hPa | 0V | 00:00:00 | 00:00:00 | 00:00:00 | |
| WB7NNF | 2026-09-03 05:53:15 | 47.86575 | -117.58054 | 3° | 71km/h | 8151m | 8.6m/s | -34.0°C | 0% | 0hPa | 0V | 00:00:00 | 00:00:00 | 00:00:00 | |
| WB7NNF | 2026-09-03 05:52:54 | 47.86257 | -117.58047 | 11° | 66km/h | 8017m | 8.3m/s | -32.7°C | 0% | 0hPa | 0V | 00:00:00 | 00:00:00 | 00:00:00 | |
| WB7NNF | 2026-09-03 05:52:32 | 47.85911 | -117.58047 | 18° | 68km/h | 7871m | 5.8m/s | -31.5°C | 0% | 0hPa | 0V | 00:00:00 | 00:00:00 | 00:00:00 | |
| WB7NNF | 2026-09-03 05:52:08 | 47.85540 | -117.57989 | 355° | 71km/h | 7735m | 4.1m/s | -30.3°C | 0% | 0hPa | 0V | 00:00:00 | 00:00:00 | 00:00:00 | |
| WB7NNF | 2026-09-03 05:51:45 | 47.85192 | -117.57921 | 10° | 68km/h | 7642m | 2.8m/s | -29.5°C | 0% | 0hPa | 0V | 00:00:00 | 00:00:00 | 00:00:00 | |
| WB7NNF | 2026-09-03 05:51:25 | 47.84834 | -117.57850 | 346° | 66km/h | 7546m | 8.2m/s | -28.7°C | 0% | 0hPa | 0V | 00:00:00 | 00:00:00 | 00:00:00 | |
| WB7NNF | 2026-09-03 05:51:03 | 47.84493 | -117.57806 | 356° | 80km/h | 7423m | 5.0m/s | -27.7°C | 0% | 0hPa | 0V | 00:00:00 | 00:00:00 | 00:00:00 | |
| WB7NNF | 2026-09-03 05:50:16 | 47.83734 | -117.57724 | 354° | 69km/h | 7162m | 6.0m/s | -25.8°C | 0% | 0hPa | 0V | 00:00:00 | 00:00:00 | 00:00:00 | |
| WB7NNF | 2026-09-03 05:49:35 | 47.83217 | -117.57635 | 345° | 66km/h | 6923m | 6.1m/s | -24.0°C | 0% | 0hPa | 0V | 00:00:00 | 00:00:00 | 00:00:00 | |
| WB7NNF | 2026-09-03 05:49:14 | 47.82929 | -117.57635 | 354° | 71km/h | 6821m | 3.3m/s | -23.3°C | 0% | 0hPa | 0V | 00:00:00 | 00:00:00 | 00:00:00 | |
| WB7NNF | 2026-09-03 05:48:50 | 47.82628 | -117.57620 | 17° | 40km/h | 6671m | 4.8m/s | -22.3°C | 0% | 0hPa | 0V | 00:00:00 | 00:00:00 | 00:00:00 | |
| WB7NNF | 2026-09-03 05:48:29 | 47.82361 | -117.57665 | 349° | 42km/h | 6551m | 5.2m/s | -21.6°C | 0% | 0hPa | 0V | 00:00:00 | 00:00:00 | 00:00:00 | |
| WB7NNF | 2026-09-03 05:48:09 | 47.82130 | -117.57715 | 20° | 60km/h | 6440m | 3.9m/s | -20.9°C | 0% | 0hPa | 0V | 00:00:00 | 00:00:00 | 00:00:00 | |
| WB7NNF | 2026-09-03 05:47:46 | 47.81881 | -117.57805 | 13° | 55km/h | 6329m | 8.0m/s | -20.1°C | 0% | 0hPa | 0V | 00:00:00 | 00:00:00 | 00:00:00 | |
| WB7NNF | 2026-09-03 05:47:24 | 47.81638 | -117.57879 | 31° | 47km/h | 6228m | 3.1m/s | -19.5°C | 0% | 0hPa | 0V | 00:00:00 | 00:00:00 | 00:00:00 | |
| WB7NNF | 2026-09-03 05:46:39 | 47.81128 | -117.58047 | 16° | 66km/h | 6006m | 7.4m/s | -17.9°C | 0% | 0hPa | 0V | 00:00:00 | 00:00:00 | 00:00:00 | |
| WB7NNF | 2026-09-03 05:46:17 | 47.80825 | -117.58140 | 355° | 38km/h | 5874m | 5.1m/s | -17.0°C | 0% | 0hPa | 0V | 00:00:00 | 00:00:00 | 00:00:00 | |
| WB7NNF | 2026-09-03 05:45:56 | 47.80553 | -117.58188 | 1° | 57km/h | 5763m | 4.3m/s | -16.1°C | 0% | 0hPa | 0V | 00:00:00 | 00:00:00 | 00:00:00 | |
| WB7NNF | 2026-09-03 05:45:36 | 47.80284 | -117.58227 | 14° | 40km/h | 5651m | 5.7m/s | -15.4°C | 0% | 0hPa | 0V | 00:00:00 | 00:00:00 | 00:00:00 | |
| WB7NNF | 2026-09-03 05:45:04 | 47.79888 | -117.58343 | 23° | 60km/h | 5489m | 4.9m/s | -15.1°C | 0% | 0hPa | 0V | 00:00:00 | 00:00:00 | 00:00:00 | |
| WB7NNF | 2026-09-03 05:44:43 | 47.79574 | -117.58459 | 12° | 77km/h | 5389m | 5.1m/s | -14.5°C | 0% | 0hPa | 0V | 00:00:00 | 00:00:00 | 00:00:00 | |
| WB7NNF | 2026-09-03 05:44:23 | 47.79214 | -117.58566 | 358° | 66km/h | 5286m | 4.7m/s | -13.7°C | 0% | 0hPa | 0V | 00:00:00 | 00:00:00 | 00:00:00 | |
| WB7NNF | 2026-09-03 05:44:02 | 47.78906 | -117.58545 | 10° | 46km/h | 5189m | 4.6m/s | -12.9°C | 0% | 0hPa | 0V | 00:00:00 | 00:00:00 | 00:00:00 | |
| WB7NNF | 2026-09-03 05:43:42 | 47.78642 | -117.58643 | 17° | 62km/h | 5089m | 4.6m/s | -12.7°C | 0% | 0hPa | 0V | 00:00:00 | 00:00:00 | 00:00:00 | |
| WB7NNF | 2026-09-03 05:43:20 | 47.78288 | -117.58736 | 5° | 78km/h | 4976m | 4.6m/s | -12.1°C | 0% | 0hPa | 0V | 00:00:00 | 00:00:00 | 00:00:00 | |
| WB7NNF | 2026-09-03 05:41:56 | 47.76955 | -117.58579 | 353° | 69km/h | 4539m | 5.6m/s | -10.4°C | 0% | 0hPa | 0V | 00:00:00 | 00:00:00 | 00:00:00 | |
| WB7NNF | 2026-09-03 05:39:41 | 47.74806 | -117.59147 | 20° | 66km/h | 3783m | 5.9m/s | -6.3°C | 0% | 0hPa | 0V | 00:00:00 | 00:00:00 | 00:00:00 |